sensor_id;sensor_type;location;lat;lon;timestamp;temperature;humidity
20233;DHT22;37438;55.674;13.074;2022-12-11T00:02:20;0.70;99.90
20233;DHT22;37438;55.674;13.074;2022-12-11T00:05:25;0.80;99.90
20233;DHT22;37438;55.674;13.074;2022-12-11T00:08:29;0.70;99.90
20233;DHT22;37438;55.674;13.074;2022-12-11T00:11:34;0.70;99.90
20233;DHT22;37438;55.674;13.074;2022-12-11T00:14:38;0.70;99.90
20233;DHT22;37438;55.674;13.074;2022-12-11T00:17:42;0.60;99.90
20233;DHT22;37438;55.674;13.074;2022-12-11T00:20:47;0.50;99.90
20233;DHT22;37438;55.674;13.074;2022-12-11T00:23:51;0.50;99.90
20233;DHT22;37438;55.674;13.074;2022-12-11T00:26:55;0.50;99.90
20233;DHT22;37438;55.674;13.074;2022-12-11T00:29:59;0.50;99.90
20233;DHT22;37438;55.674;13.074;2022-12-11T00:33:04;0.40;99.90
20233;DHT22;37438;55.674;13.074;2022-12-11T00:36:18;0.40;99.90
20233;DHT22;37438;55.674;13.074;2022-12-11T00:39:23;0.30;99.90
20233;DHT22;37438;55.674;13.074;2022-12-11T00:42:27;0.30;99.90
20233;DHT22;37438;55.674;13.074;2022-12-11T00:45:36;0.30;99.90
20233;DHT22;37438;55.674;13.074;2022-12-11T00:48:41;0.30;99.90
20233;DHT22;37438;55.674;13.074;2022-12-11T00:51:45;0.20;99.90
20233;DHT22;37438;55.674;13.074;2022-12-11T00:54:50;0.20;99.90
20233;DHT22;37438;55.674;13.074;2022-12-11T00:57:54;0.20;99.90
20233;DHT22;37438;55.674;13.074;2022-12-11T01:01:09;0.20;99.90
20233;DHT22;37438;55.674;13.074;2022-12-11T01:04:13;0.20;99.90
20233;DHT22;37438;55.674;13.074;2022-12-11T01:07:18;0.20;99.90
20233;DHT22;37438;55.674;13.074;2022-12-11T01:10:22;0.20;99.90
20233;DHT22;37438;55.674;13.074;2022-12-11T01:13:26;0.10;99.90
20233;DHT22;37438;55.674;13.074;2022-12-11T01:16:30;0.00;99.90
20233;DHT22;37438;55.674;13.074;2022-12-11T01:19:35;0.10;99.90
20233;DHT22;37438;55.674;13.074;2022-12-11T01:22:40;0.00;99.90
20233;DHT22;37438;55.674;13.074;2022-12-11T01:25:44;0.20;99.90
20233;DHT22;37438;55.674;13.074;2022-12-11T01:28:49;-0.10;99.90
20233;DHT22;37438;55.674;13.074;2022-12-11T01:31:54;0.00;99.90
20233;DHT22;37438;55.674;13.074;2022-12-11T01:34:58;-0.10;99.90
20233;DHT22;37438;55.674;13.074;2022-12-11T01:38:03;-0.10;99.90
20233;DHT22;37438;55.674;13.074;2022-12-11T01:41:07;-0.10;99.90
20233;DHT22;37438;55.674;13.074;2022-12-11T01:47:20;-0.20;99.90
20233;DHT22;37438;55.674;13.074;2022-12-11T01:50:24;-0.20;99.90
20233;DHT22;37438;55.674;13.074;2022-12-11T01:53:33;-0.30;99.90
20233;DHT22;37438;55.674;13.074;2022-12-11T01:56:38;-0.30;99.90
20233;DHT22;37438;55.674;13.074;2022-12-11T01:59:44;-0.30;99.90
20233;DHT22;37438;55.674;13.074;2022-12-11T02:02:49;-0.40;99.90
20233;DHT22;37438;55.674;13.074;2022-12-11T02:05:58;-0.40;99.90
20233;DHT22;37438;55.674;13.074;2022-12-11T02:09:03;-0.50;99.90
20233;DHT22;37438;55.674;13.074;2022-12-11T02:15:36;-0.60;99.90
20233;DHT22;37438;55.674;13.074;2022-12-11T02:18:47;-0.60;99.90
20233;DHT22;37438;55.674;13.074;2022-12-11T02:21:54;-0.60;99.90
20233;DHT22;37438;55.674;13.074;2022-12-11T02:25:17;-0.60;99.90
20233;DHT22;37438;55.674;13.074;2022-12-11T02:34:39;-0.70;99.90
20233;DHT22;37438;55.674;13.074;2022-12-11T02:37:45;-0.70;99.90
20233;DHT22;37438;55.674;13.074;2022-12-11T02:40:50;-0.80;99.90
20233;DHT22;37438;55.674;13.074;2022-12-11T02:43:56;-0.80;99.90
20233;DHT22;37438;55.674;13.074;2022-12-11T02:47:01;-0.90;99.90
20233;DHT22;37438;55.674;13.074;2022-12-11T02:50:08;-0.90;99.90
20233;DHT22;37438;55.674;13.074;2022-12-11T02:53:14;-0.90;99.90
20233;DHT22;37438;55.674;13.074;2022-12-11T02:56:23;-0.90;99.90
20233;DHT22;37438;55.674;13.074;2022-12-11T02:59:36;-0.90;99.90
20233;DHT22;37438;55.674;13.074;2022-12-11T03:02:41;-1.00;99.90
20233;DHT22;37438;55.674;13.074;2022-12-11T03:05:45;-1.00;99.90
20233;DHT22;37438;55.674;13.074;2022-12-11T03:08:51;-1.00;99.90
20233;DHT22;37438;55.674;13.074;2022-12-11T03:11:55;-1.10;99.90
20233;DHT22;37438;55.674;13.074;2022-12-11T03:15:00;-1.10;99.90
20233;DHT22;37438;55.674;13.074;2022-12-11T03:18:17;-1.20;99.90
20233;DHT22;37438;55.674;13.074;2022-12-11T03:24:46;-1.20;99.90
20233;DHT22;37438;55.674;13.074;2022-12-11T03:28:13;-1.30;99.90
20233;DHT22;37438;55.674;13.074;2022-12-11T03:34:32;-1.30;99.90
20233;DHT22;37438;55.674;13.074;2022-12-11T03:37:40;-1.30;99.90
20233;DHT22;37438;55.674;13.074;2022-12-11T03:40:45;-1.40;99.90
20233;DHT22;37438;55.674;13.074;2022-12-11T03:43:52;-1.40;99.90
20233;DHT22;37438;55.674;13.074;2022-12-11T03:46:58;-1.40;99.90
20233;DHT22;37438;55.674;13.074;2022-12-11T03:50:03;-1.40;99.90
20233;DHT22;37438;55.674;13.074;2022-12-11T03:53:08;-1.40;99.90
20233;DHT22;37438;55.674;13.074;2022-12-11T03:56:13;-1.50;99.90
20233;DHT22;37438;55.674;13.074;2022-12-11T03:59:19;-1.60;99.90
20233;DHT22;37438;55.674;13.074;2022-12-11T04:02:23;-1.70;99.90
20233;DHT22;37438;55.674;13.074;2022-12-11T04:05:28;-1.70;99.90
20233;DHT22;37438;55.674;13.074;2022-12-11T04:08:32;-1.70;99.90
20233;DHT22;37438;55.674;13.074;2022-12-11T04:11:36;-1.70;99.90
20233;DHT22;37438;55.674;13.074;2022-12-11T04:14:40;-1.70;99.90
20233;DHT22;37438;55.674;13.074;2022-12-11T04:18:04;-1.80;99.90
20233;DHT22;37438;55.674;13.074;2022-12-11T04:21:28;-1.80;99.90
20233;DHT22;37438;55.674;13.074;2022-12-11T04:24:51;-1.80;99.90
20233;DHT22;37438;55.674;13.074;2022-12-11T04:27:56;-1.90;99.90
20233;DHT22;37438;55.674;13.074;2022-12-11T04:31:01;-2.00;99.90
20233;DHT22;37438;55.674;13.074;2022-12-11T04:34:06;-1.90;99.90
20233;DHT22;37438;55.674;13.074;2022-12-11T04:37:11;-2.00;99.90
20233;DHT22;37438;55.674;13.074;2022-12-11T04:40:16;-2.00;99.90
20233;DHT22;37438;55.674;13.074;2022-12-11T04:43:21;-2.10;99.90
20233;DHT22;37438;55.674;13.074;2022-12-11T04:46:25;-2.10;99.90
20233;DHT22;37438;55.674;13.074;2022-12-11T04:49:30;-2.10;99.90
20233;DHT22;37438;55.674;13.074;2022-12-11T04:52:34;-2.30;99.90
20233;DHT22;37438;55.674;13.074;2022-12-11T04:55:38;-2.20;99.90
20233;DHT22;37438;55.674;13.074;2022-12-11T04:58:43;-2.30;99.90
20233;DHT22;37438;55.674;13.074;2022-12-11T05:01:49;-2.30;99.90
20233;DHT22;37438;55.674;13.074;2022-12-11T05:04:53;-2.30;99.90
20233;DHT22;37438;55.674;13.074;2022-12-11T05:07:58;-2.30;99.90
20233;DHT22;37438;55.674;13.074;2022-12-11T05:11:04;-2.30;99.90
20233;DHT22;37438;55.674;13.074;2022-12-11T05:14:09;-2.40;99.90
20233;DHT22;37438;55.674;13.074;2022-12-11T05:17:13;-2.40;99.90
20233;DHT22;37438;55.674;13.074;2022-12-11T05:20:18;-2.50;99.90
20233;DHT22;37438;55.674;13.074;2022-12-11T05:23:23;-2.50;99.90
20233;DHT22;37438;55.674;13.074;2022-12-11T05:26:28;-2.60;99.90
20233;DHT22;37438;55.674;13.074;2022-12-11T05:29:32;-2.70;99.90
20233;DHT22;37438;55.674;13.074;2022-12-11T05:32:36;-2.80;99.90
20233;DHT22;37438;55.674;13.074;2022-12-11T05:35:45;-3.00;99.90
20233;DHT22;37438;55.674;13.074;2022-12-11T05:38:50;-2.90;99.90
20233;DHT22;37438;55.674;13.074;2022-12-11T05:41:55;-3.00;99.90
20233;DHT22;37438;55.674;13.074;2022-12-11T05:45:00;-3.00;99.90
20233;DHT22;37438;55.674;13.074;2022-12-11T05:48:04;-3.10;99.90
20233;DHT22;37438;55.674;13.074;2022-12-11T05:51:09;-3.20;99.90
20233;DHT22;37438;55.674;13.074;2022-12-11T05:54:13;-3.20;99.90
20233;DHT22;37438;55.674;13.074;2022-12-11T05:57:18;-3.20;99.90
20233;DHT22;37438;55.674;13.074;2022-12-11T06:00:22;-3.30;99.90
20233;DHT22;37438;55.674;13.074;2022-12-11T06:03:27;-3.40;99.90
20233;DHT22;37438;55.674;13.074;2022-12-11T06:06:31;-3.40;99.90
20233;DHT22;37438;55.674;13.074;2022-12-11T06:09:36;-3.50;99.90
20233;DHT22;37438;55.674;13.074;2022-12-11T06:12:40;-3.50;99.90
20233;DHT22;37438;55.674;13.074;2022-12-11T06:15:45;-3.40;99.90
20233;DHT22;37438;55.674;13.074;2022-12-11T06:18:49;-3.40;99.90
20233;DHT22;37438;55.674;13.074;2022-12-11T06:21:54;-3.40;99.90
20233;DHT22;37438;55.674;13.074;2022-12-11T06:24:59;-3.40;99.90
20233;DHT22;37438;55.674;13.074;2022-12-11T06:28:03;-3.40;99.90
20233;DHT22;37438;55.674;13.074;2022-12-11T06:31:07;-3.40;99.90
20233;DHT22;37438;55.674;13.074;2022-12-11T06:34:12;-3.30;99.90
20233;DHT22;37438;55.674;13.074;2022-12-11T06:37:16;-3.30;99.90
20233;DHT22;37438;55.674;13.074;2022-12-11T06:40:20;-3.40;99.90
20233;DHT22;37438;55.674;13.074;2022-12-11T06:43:25;-3.40;99.90
20233;DHT22;37438;55.674;13.074;2022-12-11T06:46:29;-3.40;99.90
20233;DHT22;37438;55.674;13.074;2022-12-11T06:49:34;-3.30;99.90
20233;DHT22;37438;55.674;13.074;2022-12-11T06:52:39;-3.40;99.90
20233;DHT22;37438;55.674;13.074;2022-12-11T06:55:43;-3.60;99.90
20233;DHT22;37438;55.674;13.074;2022-12-11T06:58:48;-3.60;99.90
20233;DHT22;37438;55.674;13.074;2022-12-11T07:01:53;-3.60;99.90
20233;DHT22;37438;55.674;13.074;2022-12-11T07:04:58;-3.70;99.90
20233;DHT22;37438;55.674;13.074;2022-12-11T07:08:02;-3.60;99.90
20233;DHT22;37438;55.674;13.074;2022-12-11T07:11:08;-3.60;99.90
20233;DHT22;37438;55.674;13.074;2022-12-11T07:14:13;-3.60;99.90
20233;DHT22;37438;55.674;13.074;2022-12-11T07:17:18;-3.50;99.90
20233;DHT22;37438;55.674;13.074;2022-12-11T07:20:22;-3.50;99.90
20233;DHT22;37438;55.674;13.074;2022-12-11T07:23:27;-3.60;99.90
20233;DHT22;37438;55.674;13.074;2022-12-11T07:26:31;-3.50;99.90
20233;DHT22;37438;55.674;13.074;2022-12-11T07:29:36;-3.50;99.90
20233;DHT22;37438;55.674;13.074;2022-12-11T07:32:40;-3.50;99.90
20233;DHT22;37438;55.674;13.074;2022-12-11T07:35:45;-3.40;99.90
20233;DHT22;37438;55.674;13.074;2022-12-11T07:38:49;-3.50;99.90
20233;DHT22;37438;55.674;13.074;2022-12-11T07:41:54;-3.40;99.90
20233;DHT22;37438;55.674;13.074;2022-12-11T07:44:58;-3.50;99.90
20233;DHT22;37438;55.674;13.074;2022-12-11T07:48:03;-3.50;99.90
20233;DHT22;37438;55.674;13.074;2022-12-11T07:51:08;-3.60;99.90
20233;DHT22;37438;55.674;13.074;2022-12-11T07:54:13;-3.60;99.90
20233;DHT22;37438;55.674;13.074;2022-12-11T07:57:19;-3.50;99.90
20233;DHT22;37438;55.674;13.074;2022-12-11T08:00:23;-3.50;99.90
20233;DHT22;37438;55.674;13.074;2022-12-11T08:03:28;-3.50;99.90
20233;DHT22;37438;55.674;13.074;2022-12-11T08:06:34;-3.50;99.90
20233;DHT22;37438;55.674;13.074;2022-12-11T08:09:39;-3.50;99.90
20233;DHT22;37438;55.674;13.074;2022-12-11T08:12:43;-3.50;99.90
20233;DHT22;37438;55.674;13.074;2022-12-11T08:15:47;-3.60;99.90
20233;DHT22;37438;55.674;13.074;2022-12-11T08:18:52;-3.50;99.90
20233;DHT22;37438;55.674;13.074;2022-12-11T08:21:56;-3.40;99.90
20233;DHT22;37438;55.674;13.074;2022-12-11T08:25:01;-3.50;99.90
20233;DHT22;37438;55.674;13.074;2022-12-11T08:28:05;-3.40;99.90
20233;DHT22;37438;55.674;13.074;2022-12-11T08:31:11;-3.40;99.90
20233;DHT22;37438;55.674;13.074;2022-12-11T08:34:16;-3.40;99.90
20233;DHT22;37438;55.674;13.074;2022-12-11T08:37:20;-3.50;99.90
20233;DHT22;37438;55.674;13.074;2022-12-11T08:40:24;-3.50;99.90
20233;DHT22;37438;55.674;13.074;2022-12-11T08:43:28;-3.50;99.90
20233;DHT22;37438;55.674;13.074;2022-12-11T08:46:32;-3.60;99.90
20233;DHT22;37438;55.674;13.074;2022-12-11T08:49:36;-3.50;99.90
20233;DHT22;37438;55.674;13.074;2022-12-11T08:52:40;-3.60;99.90
20233;DHT22;37438;55.674;13.074;2022-12-11T08:55:44;-3.70;99.90
20233;DHT22;37438;55.674;13.074;2022-12-11T08:58:49;-3.60;99.90
20233;DHT22;37438;55.674;13.074;2022-12-11T09:01:54;-3.60;99.90
20233;DHT22;37438;55.674;13.074;2022-12-11T09:04:58;-3.60;99.90
20233;DHT22;37438;55.674;13.074;2022-12-11T09:08:03;-3.60;99.90
20233;DHT22;37438;55.674;13.074;2022-12-11T09:11:08;-3.80;99.90
20233;DHT22;37438;55.674;13.074;2022-12-11T09:14:13;-3.90;99.90
20233;DHT22;37438;55.674;13.074;2022-12-11T09:17:19;-3.90;99.90
20233;DHT22;37438;55.674;13.074;2022-12-11T09:20:23;-3.90;99.90
20233;DHT22;37438;55.674;13.074;2022-12-11T09:23:27;-4.00;99.90
20233;DHT22;37438;55.674;13.074;2022-12-11T09:26:32;-4.00;99.90
20233;DHT22;37438;55.674;13.074;2022-12-11T09:29:36;-3.90;99.90
20233;DHT22;37438;55.674;13.074;2022-12-11T09:32:41;-4.00;99.90
20233;DHT22;37438;55.674;13.074;2022-12-11T09:35:45;-4.10;99.90
20233;DHT22;37438;55.674;13.074;2022-12-11T09:38:50;-4.20;99.90
20233;DHT22;37438;55.674;13.074;2022-12-11T09:42:14;-4.10;99.90
20233;DHT22;37438;55.674;13.074;2022-12-11T09:45:20;-4.00;99.90
20233;DHT22;37438;55.674;13.074;2022-12-11T09:48:25;-4.20;99.90
20233;DHT22;37438;55.674;13.074;2022-12-11T09:51:32;-4.20;99.90
20233;DHT22;37438;55.674;13.074;2022-12-11T09:54:43;-4.30;99.90
20233;DHT22;37438;55.674;13.074;2022-12-11T09:58:23;-4.50;99.90
20233;DHT22;37438;55.674;13.074;2022-12-11T10:01:30;-4.50;99.90
20233;DHT22;37438;55.674;13.074;2022-12-11T10:04:48;-4.70;99.90
20233;DHT22;37438;55.674;13.074;2022-12-11T10:11:42;-4.80;99.90
20233;DHT22;37438;55.674;13.074;2022-12-11T10:18:17;-4.90;99.90
20233;DHT22;37438;55.674;13.074;2022-12-11T10:21:22;-5.10;99.90
20233;DHT22;37438;55.674;13.074;2022-12-11T10:27:54;-4.80;99.90
20233;DHT22;37438;55.674;13.074;2022-12-11T10:34:11;-4.80;99.90
20233;DHT22;37438;55.674;13.074;2022-12-11T10:37:16;-4.80;99.90
20233;DHT22;37438;55.674;13.074;2022-12-11T10:40:20;-4.90;99.90
20233;DHT22;37438;55.674;13.074;2022-12-11T10:43:32;-4.80;99.90
20233;DHT22;37438;55.674;13.074;2022-12-11T10:46:37;-4.70;99.90
20233;DHT22;37438;55.674;13.074;2022-12-11T10:49:53;-4.70;99.90
20233;DHT22;37438;55.674;13.074;2022-12-11T10:52:58;-4.90;99.90
20233;DHT22;37438;55.674;13.074;2022-12-11T10:56:03;-4.90;99.90
20233;DHT22;37438;55.674;13.074;2022-12-11T10:59:12;-4.90;99.90
20233;DHT22;37438;55.674;13.074;2022-12-11T11:02:28;-4.80;99.90
20233;DHT22;37438;55.674;13.074;2022-12-11T11:05:35;-4.90;99.90
20233;DHT22;37438;55.674;13.074;2022-12-11T11:08:41;-4.00;99.90
20233;DHT22;37438;55.674;13.074;2022-12-11T11:11:48;-4.30;99.90
20233;DHT22;37438;55.674;13.074;2022-12-11T11:15:00;-4.70;99.90
20233;DHT22;37438;55.674;13.074;2022-12-11T11:18:11;-4.80;99.90
20233;DHT22;37438;55.674;13.074;2022-12-11T11:21:20;-4.80;99.90
20233;DHT22;37438;55.674;13.074;2022-12-11T11:24:26;-4.80;99.90
20233;DHT22;37438;55.674;13.074;2022-12-11T11:30:37;-4.90;99.90
20233;DHT22;37438;55.674;13.074;2022-12-11T11:33:56;-4.70;99.90
20233;DHT22;37438;55.674;13.074;2022-12-11T11:37:01;-4.70;99.90
20233;DHT22;37438;55.674;13.074;2022-12-11T11:40:20;-4.80;99.90
20233;DHT22;37438;55.674;13.074;2022-12-11T11:53:16;-4.80;99.90
20233;DHT22;37438;55.674;13.074;2022-12-11T11:56:27;-4.90;99.90
20233;DHT22;37438;55.674;13.074;2022-12-11T11:59:35;-5.00;99.90
20233;DHT22;37438;55.674;13.074;2022-12-11T12:02:42;-4.90;99.90
20233;DHT22;37438;55.674;13.074;2022-12-11T12:12:23;-4.80;99.90
20233;DHT22;37438;55.674;13.074;2022-12-11T12:15:42;-4.70;99.90
20233;DHT22;37438;55.674;13.074;2022-12-11T12:18:56;-4.30;99.90
20233;DHT22;37438;55.674;13.074;2022-12-11T12:25:47;-4.10;99.90
20233;DHT22;37438;55.674;13.074;2022-12-11T12:48:17;-3.30;99.90
20233;DHT22;37438;55.674;13.074;2022-12-11T12:51:22;-3.60;99.90
20233;DHT22;37438;55.674;13.074;2022-12-11T12:54:28;-1.80;99.90
20233;DHT22;37438;55.674;13.074;2022-12-11T12:57:34;-0.60;99.90
20233;DHT22;37438;55.674;13.074;2022-12-11T13:00:40;-0.40;99.90
20233;DHT22;37438;55.674;13.074;2022-12-11T13:06:59;0.60;99.90
20233;DHT22;37438;55.674;13.074;2022-12-11T13:10:24;0.80;99.90
20233;DHT22;37438;55.674;13.074;2022-12-11T13:13:31;1.00;99.90
20233;DHT22;37438;55.674;13.074;2022-12-11T13:16:38;0.40;99.90
20233;DHT22;37438;55.674;13.074;2022-12-11T13:19:42;0.10;99.90
20233;DHT22;37438;55.674;13.074;2022-12-11T13:23:09;0.10;99.90
20233;DHT22;37438;55.674;13.074;2022-12-11T13:26:12;-0.40;99.90
20233;DHT22;37438;55.674;13.074;2022-12-11T13:29:37;-1.30;99.90
20233;DHT22;37438;55.674;13.074;2022-12-11T13:32:42;-1.00;99.90
20233;DHT22;37438;55.674;13.074;2022-12-11T13:35:48;-0.10;99.90
20233;DHT22;37438;55.674;13.074;2022-12-11T13:39:05;0.00;99.90
20233;DHT22;37438;55.674;13.074;2022-12-11T13:45:39;-0.10;99.90
20233;DHT22;37438;55.674;13.074;2022-12-11T13:51:56;-1.40;99.90
20233;DHT22;37438;55.674;13.074;2022-12-11T13:55:00;-2.20;99.90
20233;DHT22;37438;55.674;13.074;2022-12-11T13:58:15;-2.40;99.90
20233;DHT22;37438;55.674;13.074;2022-12-11T14:01:24;-3.00;99.90
20233;DHT22;37438;55.674;13.074;2022-12-11T14:04:31;-3.50;99.90
20233;DHT22;37438;55.674;13.074;2022-12-11T14:07:39;-3.90;99.90
20233;DHT22;37438;55.674;13.074;2022-12-11T14:10:44;-4.10;99.90
20233;DHT22;37438;55.674;13.074;2022-12-11T14:13:55;-4.30;99.90
20233;DHT22;37438;55.674;13.074;2022-12-11T14:17:00;-4.50;99.90
20233;DHT22;37438;55.674;13.074;2022-12-11T14:20:05;-4.60;99.90
20233;DHT22;37438;55.674;13.074;2022-12-11T14:23:19;-4.80;99.90
20233;DHT22;37438;55.674;13.074;2022-12-11T14:26:25;-4.90;99.90
20233;DHT22;37438;55.674;13.074;2022-12-11T14:29:31;-5.10;99.90
20233;DHT22;37438;55.674;13.074;2022-12-11T14:32:38;-5.10;99.90
20233;DHT22;37438;55.674;13.074;2022-12-11T14:35:45;-5.20;99.90
20233;DHT22;37438;55.674;13.074;2022-12-11T14:38:54;-5.20;99.90
20233;DHT22;37438;55.674;13.074;2022-12-11T14:42:05;-5.20;99.90
20233;DHT22;37438;55.674;13.074;2022-12-11T14:48:19;-5.40;99.90
20233;DHT22;37438;55.674;13.074;2022-12-11T14:51:25;-5.30;99.90
20233;DHT22;37438;55.674;13.074;2022-12-11T14:54:33;-5.40;99.90
20233;DHT22;37438;55.674;13.074;2022-12-11T14:57:38;-5.50;99.90
20233;DHT22;37438;55.674;13.074;2022-12-11T15:00:43;-5.50;99.90
20233;DHT22;37438;55.674;13.074;2022-12-11T15:07:16;-5.60;99.90
20233;DHT22;37438;55.674;13.074;2022-12-11T15:10:24;-5.60;99.90
20233;DHT22;37438;55.674;13.074;2022-12-11T15:13:29;-5.60;99.90
20233;DHT22;37438;55.674;13.074;2022-12-11T15:16:36;-5.50;99.90
20233;DHT22;37438;55.674;13.074;2022-12-11T15:19:41;-5.60;99.90
20233;DHT22;37438;55.674;13.074;2022-12-11T15:22:49;-5.50;99.90
20233;DHT22;37438;55.674;13.074;2022-12-11T15:25:55;-5.50;99.90
20233;DHT22;37438;55.674;13.074;2022-12-11T15:29:01;-5.50;99.90
20233;DHT22;37438;55.674;13.074;2022-12-11T15:35:22;-5.40;99.90
20233;DHT22;37438;55.674;13.074;2022-12-11T15:41:34;-5.40;99.90
20233;DHT22;37438;55.674;13.074;2022-12-11T15:44:38;-5.40;99.90
20233;DHT22;37438;55.674;13.074;2022-12-11T15:47:43;-5.40;99.90
20233;DHT22;37438;55.674;13.074;2022-12-11T15:50:48;-5.40;99.90
20233;DHT22;37438;55.674;13.074;2022-12-11T15:53:52;-5.40;99.90
20233;DHT22;37438;55.674;13.074;2022-12-11T15:56:56;-5.40;99.90
20233;DHT22;37438;55.674;13.074;2022-12-11T16:00:02;-5.40;99.90
20233;DHT22;37438;55.674;13.074;2022-12-11T16:03:09;-5.40;99.90
20233;DHT22;37438;55.674;13.074;2022-12-11T16:06:14;-5.30;99.90
20233;DHT22;37438;55.674;13.074;2022-12-11T16:09:18;-5.30;99.90
20233;DHT22;37438;55.674;13.074;2022-12-11T16:12:22;-5.30;99.90
20233;DHT22;37438;55.674;13.074;2022-12-11T16:15:27;-5.30;99.90
20233;DHT22;37438;55.674;13.074;2022-12-11T16:18:31;-5.30;99.90
20233;DHT22;37438;55.674;13.074;2022-12-11T16:21:36;-5.30;99.90
20233;DHT22;37438;55.674;13.074;2022-12-11T16:24:40;-5.30;99.90
20233;DHT22;37438;55.674;13.074;2022-12-11T16:27:44;-5.20;99.90
20233;DHT22;37438;55.674;13.074;2022-12-11T16:30:48;-5.30;99.90
20233;DHT22;37438;55.674;13.074;2022-12-11T16:33:53;-5.30;99.90
20233;DHT22;37438;55.674;13.074;2022-12-11T16:36:58;-5.20;99.90
20233;DHT22;37438;55.674;13.074;2022-12-11T16:40:02;-5.20;99.90
20233;DHT22;37438;55.674;13.074;2022-12-11T16:43:09;-5.20;99.90
20233;DHT22;37438;55.674;13.074;2022-12-11T16:46:17;-5.20;99.90
20233;DHT22;37438;55.674;13.074;2022-12-11T16:49:22;-5.20;99.90
20233;DHT22;37438;55.674;13.074;2022-12-11T16:52:26;-5.20;99.90
20233;DHT22;37438;55.674;13.074;2022-12-11T16:55:31;-5.20;99.90
20233;DHT22;37438;55.674;13.074;2022-12-11T16:58:35;-5.10;99.90
20233;DHT22;37438;55.674;13.074;2022-12-11T17:01:39;-5.10;99.90
20233;DHT22;37438;55.674;13.074;2022-12-11T17:04:44;-5.10;99.90
20233;DHT22;37438;55.674;13.074;2022-12-11T17:07:56;-5.10;99.90
20233;DHT22;37438;55.674;13.074;2022-12-11T17:11:05;-5.00;99.90
20233;DHT22;37438;55.674;13.074;2022-12-11T17:14:10;-5.10;99.90
20233;DHT22;37438;55.674;13.074;2022-12-11T17:17:15;-5.10;99.90
20233;DHT22;37438;55.674;13.074;2022-12-11T17:20:20;-5.10;99.90
20233;DHT22;37438;55.674;13.074;2022-12-11T17:23:24;-5.10;99.90
20233;DHT22;37438;55.674;13.074;2022-12-11T17:26:30;-5.10;99.90
20233;DHT22;37438;55.674;13.074;2022-12-11T17:29:35;-5.00;99.90
20233;DHT22;37438;55.674;13.074;2022-12-11T17:32:40;-5.00;99.90
20233;DHT22;37438;55.674;13.074;2022-12-11T17:35:44;-5.10;99.90
20233;DHT22;37438;55.674;13.074;2022-12-11T17:38:48;-5.00;99.90
20233;DHT22;37438;55.674;13.074;2022-12-11T17:41:53;-5.00;99.90
20233;DHT22;37438;55.674;13.074;2022-12-11T17:44:57;-5.00;99.90
20233;DHT22;37438;55.674;13.074;2022-12-11T17:48:01;-5.00;99.90
20233;DHT22;37438;55.674;13.074;2022-12-11T17:51:06;-5.00;99.90
20233;DHT22;37438;55.674;13.074;2022-12-11T17:54:11;-5.00;99.90
20233;DHT22;37438;55.674;13.074;2022-12-11T17:57:16;-5.00;99.90
20233;DHT22;37438;55.674;13.074;2022-12-11T18:00:21;-5.00;99.90
20233;DHT22;37438;55.674;13.074;2022-12-11T18:03:28;-5.10;99.90
20233;DHT22;37438;55.674;13.074;2022-12-11T18:06:33;-5.10;99.90
20233;DHT22;37438;55.674;13.074;2022-12-11T18:09:38;-5.10;99.90
20233;DHT22;37438;55.674;13.074;2022-12-11T18:12:42;-5.00;99.90
20233;DHT22;37438;55.674;13.074;2022-12-11T18:15:57;-5.00;99.90
20233;DHT22;37438;55.674;13.074;2022-12-11T18:19:02;-5.00;99.90
20233;DHT22;37438;55.674;13.074;2022-12-11T18:22:06;-5.00;99.90
20233;DHT22;37438;55.674;13.074;2022-12-11T18:25:10;-5.00;99.90
20233;DHT22;37438;55.674;13.074;2022-12-11T18:28:16;-5.00;99.90
20233;DHT22;37438;55.674;13.074;2022-12-11T18:31:20;-5.00;99.90
20233;DHT22;37438;55.674;13.074;2022-12-11T18:34:25;-5.00;99.90
20233;DHT22;37438;55.674;13.074;2022-12-11T18:37:29;-5.00;99.90
20233;DHT22;37438;55.674;13.074;2022-12-11T18:40:34;-4.90;99.90
20233;DHT22;37438;55.674;13.074;2022-12-11T18:43:38;-4.90;99.90
20233;DHT22;37438;55.674;13.074;2022-12-11T18:46:42;-4.90;99.90
20233;DHT22;37438;55.674;13.074;2022-12-11T18:49:47;-4.90;99.90
20233;DHT22;37438;55.674;13.074;2022-12-11T18:52:54;-4.90;99.90
20233;DHT22;37438;55.674;13.074;2022-12-11T18:55:58;-4.90;99.90
20233;DHT22;37438;55.674;13.074;2022-12-11T18:59:04;-4.80;99.90
20233;DHT22;37438;55.674;13.074;2022-12-11T19:02:09;-4.80;99.90
20233;DHT22;37438;55.674;13.074;2022-12-11T19:05:14;-4.80;99.90
20233;DHT22;37438;55.674;13.074;2022-12-11T19:08:18;-4.80;99.90
20233;DHT22;37438;55.674;13.074;2022-12-11T19:11:24;-4.80;99.90
20233;DHT22;37438;55.674;13.074;2022-12-11T19:14:29;-4.80;99.90
20233;DHT22;37438;55.674;13.074;2022-12-11T19:17:35;-4.80;99.90
20233;DHT22;37438;55.674;13.074;2022-12-11T19:20:39;-4.80;99.90
20233;DHT22;37438;55.674;13.074;2022-12-11T19:24:06;-4.80;99.90
20233;DHT22;37438;55.674;13.074;2022-12-11T19:27:11;-4.80;99.90
20233;DHT22;37438;55.674;13.074;2022-12-11T19:30:17;-4.80;99.90
20233;DHT22;37438;55.674;13.074;2022-12-11T19:33:22;-4.70;99.90
20233;DHT22;37438;55.674;13.074;2022-12-11T19:36:28;-4.80;99.90
20233;DHT22;37438;55.674;13.074;2022-12-11T19:39:33;-4.60;99.90
20233;DHT22;37438;55.674;13.074;2022-12-11T19:42:38;-4.60;99.90
20233;DHT22;37438;55.674;13.074;2022-12-11T19:45:42;-4.60;99.90
20233;DHT22;37438;55.674;13.074;2022-12-11T19:48:50;-4.70;99.90
20233;DHT22;37438;55.674;13.074;2022-12-11T19:51:55;-4.60;99.90
20233;DHT22;37438;55.674;13.074;2022-12-11T19:55:00;-4.60;99.90
20233;DHT22;37438;55.674;13.074;2022-12-11T19:58:05;-4.50;99.90
20233;DHT22;37438;55.674;13.074;2022-12-11T20:01:20;-4.60;99.90
20233;DHT22;37438;55.674;13.074;2022-12-11T20:04:28;-4.50;99.90
20233;DHT22;37438;55.674;13.074;2022-12-11T20:07:32;-4.50;99.90
20233;DHT22;37438;55.674;13.074;2022-12-11T20:10:37;-4.50;99.90
20233;DHT22;37438;55.674;13.074;2022-12-11T20:13:41;-4.40;99.90
20233;DHT22;37438;55.674;13.074;2022-12-11T20:16:46;-4.40;99.90
20233;DHT22;37438;55.674;13.074;2022-12-11T20:20:10;-4.30;99.90
20233;DHT22;37438;55.674;13.074;2022-12-11T20:23:15;-4.30;99.90
20233;DHT22;37438;55.674;13.074;2022-12-11T20:26:21;-4.20;99.90
20233;DHT22;37438;55.674;13.074;2022-12-11T20:29:25;-4.30;99.90
20233;DHT22;37438;55.674;13.074;2022-12-11T20:32:33;-4.30;99.90
20233;DHT22;37438;55.674;13.074;2022-12-11T20:35:56;-4.20;99.90
20233;DHT22;37438;55.674;13.074;2022-12-11T20:39:01;-4.20;99.90
20233;DHT22;37438;55.674;13.074;2022-12-11T20:42:07;-4.20;99.90
20233;DHT22;37438;55.674;13.074;2022-12-11T20:45:11;-4.20;99.90
20233;DHT22;37438;55.674;13.074;2022-12-11T20:48:17;-4.10;99.90
20233;DHT22;37438;55.674;13.074;2022-12-11T20:51:21;-4.10;99.90
20233;DHT22;37438;55.674;13.074;2022-12-11T20:54:29;-4.10;99.90
20233;DHT22;37438;55.674;13.074;2022-12-11T20:57:33;-4.10;99.90
20233;DHT22;37438;55.674;13.074;2022-12-11T21:00:38;-4.10;99.90